createdAt,value
2019-02-17T00:00:32.309Z,2.23
2019-02-17T00:03:01.035Z,2.23
2019-02-17T00:05:29.737Z,2.22
2019-02-17T00:07:58.303Z,2.28
2019-02-17T00:10:27.159Z,2.28
2019-02-17T00:12:55.851Z,2.23
2019-02-17T00:15:24.472Z,2.19
2019-02-17T00:17:53.447Z,2.17
2019-02-17T00:20:22.098Z,2.06
2019-02-17T00:22:50.680Z,2.12
2019-02-17T00:25:20.537Z,2.11
2019-02-17T00:27:49.955Z,2.16
2019-02-17T00:30:18.610Z,2.19
2019-02-17T00:32:47.274Z,2.22
2019-02-17T00:35:15.961Z,2.20
2019-02-17T00:37:44.508Z,2.14
2019-02-17T00:40:13.253Z,2.08
2019-02-17T00:42:42.011Z,2.01
2019-02-17T00:45:10.899Z,1.96
2019-02-17T00:47:39.615Z,1.76
2019-02-17T00:50:10.455Z,1.82
2019-02-17T00:52:39.146Z,1.74
2019-02-17T00:55:08.303Z,1.55
2019-02-17T00:57:36.918Z,1.66
2019-02-17T01:00:08.600Z,1.56
2019-02-17T01:02:37.308Z,1.58
2019-02-17T01:05:07.329Z,1.61
2019-02-17T01:07:36.039Z,1.69
2019-02-17T01:10:07.525Z,1.81
2019-02-17T01:12:36.379Z,1.94
2019-02-17T01:15:08.639Z,2.11
2019-02-17T01:17:37.316Z,1.72
2019-02-17T01:20:08.590Z,2.19
2019-02-17T01:22:37.365Z,2.02
2019-02-17T01:25:08.845Z,2.08
2019-02-17T01:27:37.525Z,1.83
2019-02-17T01:30:09.308Z,1.71
2019-02-17T01:32:37.928Z,1.75
2019-02-17T01:35:06.663Z,1.77
2019-02-17T01:37:35.326Z,1.70
2019-02-17T01:40:07.892Z,1.66
2019-02-17T01:42:36.756Z,1.43
2019-02-17T01:45:08.737Z,1.49
2019-02-17T01:47:37.424Z,1.50
2019-02-17T01:50:08.276Z,1.47
2019-02-17T01:52:36.968Z,1.49
2019-02-17T01:55:08.059Z,1.45
2019-02-17T01:57:36.670Z,1.41
2019-02-17T02:00:10.919Z,1.43
2019-02-17T02:02:39.594Z,1.42
2019-02-17T02:05:08.289Z,1.42
2019-02-17T02:07:36.959Z,1.34
2019-02-17T02:10:08.999Z,1.34
2019-02-17T02:12:37.774Z,1.38
2019-02-17T02:15:11.964Z,1.35
2019-02-17T02:17:40.736Z,1.25
2019-02-17T02:20:11.690Z,1.30
2019-02-17T02:22:40.243Z,1.23
2019-02-17T02:25:10.064Z,1.26
2019-02-17T02:27:38.761Z,1.11
2019-02-17T02:30:10.351Z,1.12
2019-02-17T02:32:39.101Z,1.03
2019-02-17T02:35:08.211Z,0.99
2019-02-17T02:37:36.909Z,1.03
2019-02-17T02:40:07.318Z,0.94
2019-02-17T02:42:36.100Z,0.89
2019-02-17T02:45:08.239Z,0.80
2019-02-17T02:47:36.869Z,0.55
2019-02-17T02:50:11.346Z,0.79
2019-02-17T02:52:40.038Z,0.61
2019-02-17T02:55:10.039Z,0.62
2019-02-17T02:57:38.693Z,0.72
2019-02-17T03:00:10.455Z,0.80
2019-02-17T03:02:39.174Z,0.86
2019-02-17T03:05:28.487Z,1.00
2019-02-17T03:07:57.169Z,0.97
2019-02-17T03:10:25.854Z,0.79
2019-02-17T03:12:54.398Z,0.79
2019-02-17T03:15:23.117Z,0.86
2019-02-17T03:17:51.848Z,0.88
2019-02-17T03:20:20.540Z,0.94
2019-02-17T03:22:49.178Z,0.91
2019-02-17T03:25:17.815Z,0.86
2019-02-17T03:27:46.467Z,0.90
2019-02-17T03:30:15.178Z,1.00
2019-02-17T03:32:43.925Z,0.99
2019-02-17T03:35:12.661Z,0.86
2019-02-17T03:37:41.400Z,0.70
2019-02-17T03:40:10.301Z,0.65
2019-02-17T03:42:38.926Z,0.69
2019-02-17T03:45:10.491Z,0.72
2019-02-17T03:47:39.250Z,0.73
2019-02-17T03:50:09.380Z,0.65
2019-02-17T03:52:38.059Z,0.77
2019-02-17T03:55:06.778Z,0.74
2019-02-17T03:57:35.530Z,0.63
2019-02-17T04:00:16.373Z,0.61
2019-02-17T04:02:37.851Z,0.76
2019-02-17T04:05:07.358Z,0.69
2019-02-17T04:07:36.035Z,0.68
2019-02-17T04:10:05.884Z,0.70
2019-02-17T04:12:34.568Z,0.73
2019-02-17T04:15:03.358Z,0.72
2019-02-17T04:17:32.078Z,0.66
2019-02-17T04:20:00.696Z,0.65
2019-02-17T04:22:29.432Z,0.49
2019-02-17T04:24:58.365Z,0.58
2019-02-17T04:27:27.072Z,0.68
2019-02-17T04:29:55.775Z,0.72
2019-02-17T04:32:24.510Z,0.85
2019-02-17T04:34:53.238Z,0.80
2019-02-17T04:37:21.934Z,0.81
2019-02-17T04:39:50.667Z,0.81
2019-02-17T04:42:19.372Z,0.77
2019-02-17T04:44:48.016Z,0.75
2019-02-17T04:47:16.675Z,0.70
2019-02-17T04:49:45.280Z,0.65
2019-02-17T04:52:14.047Z,0.62
2019-02-17T04:54:42.706Z,0.63
2019-02-17T04:57:11.486Z,0.57
2019-02-17T04:59:40.162Z,0.48
2019-02-17T05:02:08.892Z,0.52
2019-02-17T05:04:37.530Z,0.59
2019-02-17T05:07:06.438Z,0.49
2019-02-17T05:09:35.070Z,0.47
2019-02-17T05:12:03.744Z,0.45
2019-02-17T05:14:32.508Z,0.42
2019-02-17T05:17:01.220Z,0.41
2019-02-17T05:19:29.881Z,0.36
2019-02-17T05:21:58.502Z,0.37
2019-02-17T05:24:27.242Z,0.42
2019-02-17T05:26:55.980Z,0.47
2019-02-17T05:29:24.639Z,0.51
2019-02-17T05:31:53.279Z,0.48
2019-02-17T05:34:21.970Z,0.43
2019-02-17T05:36:50.672Z,0.39
2019-02-17T05:39:19.411Z,0.38
2019-02-17T05:41:48.137Z,0.31
2019-02-17T05:44:16.689Z,0.20
2019-02-17T05:46:45.371Z,0.29
2019-02-17T05:49:13.988Z,0.36
2019-02-17T05:51:42.559Z,0.43
2019-02-17T05:54:11.263Z,0.48
2019-02-17T05:56:39.925Z,0.46
2019-02-17T05:59:08.659Z,0.51
2019-02-17T06:01:37.360Z,0.50
2019-02-17T06:04:06.578Z,0.44
2019-02-17T06:06:35.224Z,0.44
2019-02-17T06:09:04.972Z,0.32
2019-02-17T06:11:33.627Z,0.22
2019-02-17T06:14:02.448Z,0.25
2019-02-17T06:16:31.204Z,0.17
2019-02-17T06:18:59.941Z,0.14
2019-02-17T06:21:28.598Z,0.08
2019-02-17T06:23:57.199Z,0.11
2019-02-17T06:26:25.767Z,0.21
2019-02-17T06:28:54.567Z,0.21
2019-02-17T06:31:23.284Z,0.02
2019-02-17T06:33:52.251Z,-0.09
2019-02-17T06:36:21.305Z,-1.10
2019-02-17T06:38:50.024Z,-0.11
2019-02-17T06:41:18.684Z,-0.11
2019-02-17T06:43:47.374Z,-0.06
2019-02-17T06:46:17.708Z,0.02
2019-02-17T06:48:46.339Z,0.02
2019-02-17T06:51:15.020Z,-0.03
2019-02-17T06:53:43.749Z,-0.07
2019-02-17T06:56:14.086Z,-0.08
2019-02-17T06:58:42.768Z,-0.16
2019-02-17T07:01:11.461Z,-0.10
2019-02-17T07:03:40.062Z,-0.04
2019-02-17T07:06:10.422Z,0.03
2019-02-17T07:08:39.368Z,0.06
2019-02-17T07:11:08.116Z,0.05
2019-02-17T07:13:36.819Z,0.20
2019-02-17T07:16:05.661Z,0.16
2019-02-17T07:18:34.317Z,0.27
2019-02-17T07:21:03.896Z,0.39
2019-02-17T07:23:32.730Z,0.47
2019-02-17T07:26:01.479Z,0.55
2019-02-17T07:28:30.156Z,0.48
2019-02-17T07:30:59.556Z,0.55
2019-02-17T07:33:29.141Z,0.64
2019-02-17T07:35:58.109Z,0.69
2019-02-17T07:38:26.650Z,0.91
2019-02-17T07:40:55.424Z,1.15
2019-02-17T07:43:24.671Z,1.43
2019-02-17T07:45:56.509Z,1.65
2019-02-17T07:48:25.441Z,1.67
2019-02-17T07:51:06.543Z,1.96
2019-02-17T07:53:36.177Z,1.77
2019-02-17T07:56:05.020Z,2.23
2019-02-17T07:58:33.843Z,2.23
2019-02-17T08:01:04.483Z,2.69
2019-02-17T08:03:33.283Z,3.31
2019-02-17T08:06:02.184Z,3.75
2019-02-17T08:08:30.870Z,4.58
2019-02-17T08:11:03.939Z,5.01
2019-02-17T08:13:30.014Z,5.10
2019-02-17T08:15:58.891Z,5.48
2019-02-17T08:18:29.406Z,5.79
2019-02-17T08:20:58.359Z,5.85
2019-02-17T08:23:26.994Z,5.77
2019-02-17T08:25:55.647Z,5.77
2019-02-17T08:28:24.393Z,6.11
2019-02-17T08:30:57.300Z,6.53
2019-02-17T08:33:26.039Z,6.90
2019-02-17T08:35:54.703Z,6.86
2019-02-17T08:38:23.445Z,7.00
2019-02-17T08:40:52.099Z,7.11
2019-02-17T08:43:21.169Z,7.02
2019-02-17T08:45:50.019Z,6.98
2019-02-17T08:48:18.822Z,7.12
2019-02-17T08:50:48.017Z,7.18
2019-02-17T08:53:17.073Z,7.44
2019-02-17T08:55:46.091Z,7.59
2019-02-17T08:58:14.820Z,7.51
2019-02-17T09:00:43.644Z,7.48
2019-02-17T09:03:12.490Z,7.35
2019-02-17T09:05:44.198Z,8.17
2019-02-17T09:08:12.084Z,8.24
2019-02-17T09:10:41.115Z,8.63
2019-02-17T09:13:10.011Z,8.38
2019-02-17T09:15:38.703Z,9.07
2019-02-17T09:18:07.419Z,8.89
2019-02-17T09:20:37.370Z,9.19
2019-02-17T09:23:06.498Z,9.04
2019-02-17T09:25:35.155Z,9.45
2019-02-17T09:28:03.974Z,9.74
2019-02-17T09:30:33.586Z,9.84
2019-02-17T09:33:02.320Z,9.75
2019-02-17T09:35:32.789Z,10.04
2019-02-17T09:38:01.697Z,10.63
2019-02-17T09:40:31.633Z,11.12
2019-02-17T09:43:01.371Z,11.06
2019-02-17T09:45:31.752Z,10.60
2019-02-17T09:48:00.455Z,10.71
2019-02-17T09:50:29.180Z,10.88
2019-02-17T09:52:57.907Z,11.83
2019-02-17T09:55:26.681Z,11.77
2019-02-17T09:57:55.352Z,11.35
2019-02-17T10:00:24.057Z,11.47
2019-02-17T10:02:52.705Z,10.83
2019-02-17T10:05:21.468Z,11.66
2019-02-17T10:07:51.278Z,11.87
2019-02-17T10:10:21.251Z,12.14
2019-02-17T10:12:50.003Z,11.81
2019-02-17T10:15:18.722Z,11.63
2019-02-17T10:17:47.470Z,11.62
2019-02-17T10:20:17.280Z,12.01
2019-02-17T10:22:45.973Z,11.49
2019-02-17T10:25:14.713Z,11.77
2019-02-17T10:27:43.419Z,12.27
2019-02-17T10:30:14.897Z,12.59
2019-02-17T10:32:43.655Z,12.60
2019-02-17T10:35:12.395Z,13.06
2019-02-17T10:37:41.078Z,13.20
2019-02-17T10:40:12.707Z,13.19
2019-02-17T10:42:41.937Z,13.29
2019-02-17T10:45:12.587Z,12.87
2019-02-17T10:47:41.414Z,13.55
2019-02-17T10:50:12.776Z,13.63
2019-02-17T10:52:49.820Z,14.09
2019-02-17T10:55:18.663Z,13.26
2019-02-17T10:57:47.312Z,13.66
2019-02-17T11:00:20.226Z,13.28
2019-02-17T11:02:49.880Z,13.41
2019-02-17T11:05:18.516Z,13.48
2019-02-17T11:07:47.280Z,13.46
2019-02-17T11:10:15.926Z,13.32
2019-02-17T11:12:44.666Z,13.47
2019-02-17T11:15:19.028Z,13.97
2019-02-17T11:17:59.365Z,14.16
2019-02-17T11:20:28.126Z,13.95
2019-02-17T11:22:56.958Z,14.20
2019-02-17T11:25:27.936Z,14.14
2019-02-17T11:27:57.350Z,13.84
2019-02-17T11:30:25.979Z,14.37
2019-02-17T11:32:58.509Z,14.70
2019-02-17T11:35:29.666Z,14.75
2019-02-17T11:37:57.797Z,14.54
2019-02-17T11:40:26.537Z,14.70
2019-02-17T11:42:55.379Z,14.93
2019-02-17T11:45:24.172Z,14.50
2019-02-17T11:47:53.665Z,14.72
2019-02-17T11:50:30.924Z,14.77
2019-02-17T11:52:59.669Z,14.82
2019-02-17T11:55:28.305Z,14.63
2019-02-17T11:57:57.131Z,14.50
2019-02-17T12:00:26.057Z,14.57
2019-02-17T12:02:54.778Z,14.52
2019-02-17T12:05:23.545Z,14.52
2019-02-17T12:07:52.434Z,14.64
2019-02-17T12:10:21.074Z,14.61
2019-02-17T12:12:49.820Z,14.81
2019-02-17T12:15:18.512Z,14.88
2019-02-17T12:17:47.173Z,15.08
2019-02-17T12:20:38.247Z,14.86
2019-02-17T12:23:09.786Z,15.13
2019-02-17T12:25:43.121Z,14.89
2019-02-17T12:28:13.434Z,15.04
2019-02-17T12:30:43.883Z,15.16
2019-02-17T12:33:19.224Z,15.05
2019-02-17T12:35:43.028Z,15.29
2019-02-17T12:38:11.854Z,15.09
2019-02-17T12:40:40.521Z,15.19
2019-02-17T12:43:09.226Z,14.84
2019-02-17T12:45:38.003Z,15.03
2019-02-17T12:48:06.762Z,15.32
2019-02-17T12:50:35.464Z,15.27
2019-02-17T12:53:04.900Z,15.56
2019-02-17T12:55:33.621Z,15.24
2019-02-17T12:58:02.962Z,15.38
2019-02-17T13:00:31.717Z,15.44
2019-02-17T13:03:00.424Z,15.67
2019-02-17T13:05:29.341Z,15.49
2019-02-17T13:07:58.136Z,15.33
2019-02-17T13:10:26.892Z,15.40
2019-02-17T13:12:55.746Z,15.36
2019-02-17T13:15:24.833Z,15.40
2019-02-17T13:17:53.559Z,15.41
2019-02-17T13:20:22.543Z,15.26
2019-02-17T13:22:51.114Z,15.43
2019-02-17T13:25:19.898Z,15.64
2019-02-17T13:27:49.033Z,15.49
2019-02-17T13:30:28.308Z,15.70
2019-02-17T13:32:57.136Z,15.69
2019-02-17T13:35:27.065Z,16.05
2019-02-17T13:37:55.620Z,16.16
2019-02-17T13:40:24.378Z,15.92
2019-02-17T13:42:53.188Z,16.47
2019-02-17T13:45:22.013Z,16.53
2019-02-17T13:47:50.948Z,16.27
2019-02-17T13:50:20.044Z,16.15
2019-02-17T13:52:48.642Z,16.36
2019-02-17T13:55:17.568Z,16.38
2019-02-17T13:57:46.664Z,16.18
2019-02-17T14:00:19.319Z,16.28
2019-02-17T14:02:48.086Z,16.49
2019-02-17T14:05:16.817Z,16.38
2019-02-17T14:07:45.457Z,16.58
2019-02-17T14:10:19.429Z,16.73
2019-02-17T14:12:48.273Z,16.82
2019-02-17T14:15:21.732Z,16.83
2019-02-17T14:17:50.461Z,16.67
2019-02-17T14:20:19.921Z,16.92
2019-02-17T14:22:48.702Z,16.89
2019-02-17T14:25:17.722Z,17.19
2019-02-17T14:27:46.539Z,17.30
2019-02-17T14:30:17.631Z,17.03
2019-02-17T14:32:46.282Z,17.08
2019-02-17T14:35:20.733Z,16.77
2019-02-17T14:37:49.539Z,16.74
2019-02-17T14:40:18.088Z,16.42
2019-02-17T14:42:46.839Z,16.46
2019-02-17T14:45:29.308Z,16.47
2019-02-17T14:48:11.522Z,16.36
2019-02-17T14:50:56.742Z,16.39
2019-02-17T14:53:39.627Z,16.04
2019-02-17T14:56:24.645Z,16.44
2019-02-17T14:59:08.836Z,16.46
2019-02-17T15:01:53.844Z,16.35
2019-02-17T15:04:38.127Z,16.14
2019-02-17T15:07:26.687Z,16.14
2019-02-17T15:10:10.563Z,16.39
2019-02-17T15:12:56.349Z,16.33
2019-02-17T15:15:44.972Z,16.26
2019-02-17T15:18:30.724Z,16.25
2019-02-17T15:21:23.698Z,16.12
2019-02-17T15:24:08.141Z,15.97
2019-02-17T15:26:52.857Z,15.70
2019-02-17T15:29:37.800Z,15.66
2019-02-17T15:32:19.963Z,15.40
2019-02-17T15:35:11.230Z,15.38
2019-02-17T15:37:54.261Z,15.44
2019-02-17T15:40:40.963Z,15.41
2019-02-17T15:43:24.290Z,15.34
2019-02-17T15:46:09.230Z,15.29
2019-02-17T15:48:52.765Z,15.06
2019-02-17T15:51:27.006Z,14.91
2019-02-17T15:54:02.338Z,14.86
2019-02-17T15:56:31.069Z,14.77
2019-02-17T15:59:06.122Z,14.72
2019-02-17T16:01:34.911Z,14.61
2019-02-17T16:04:08.425Z,14.41
2019-02-17T16:06:37.240Z,14.33
2019-02-17T16:09:07.535Z,14.13
2019-02-17T16:11:36.803Z,14.03
2019-02-17T16:14:05.643Z,13.97
2019-02-17T16:16:34.354Z,13.88
2019-02-17T16:19:03.168Z,13.80
2019-02-17T16:21:31.885Z,13.64
2019-02-17T16:24:00.620Z,13.66
2019-02-17T16:26:29.331Z,13.61
2019-02-17T16:28:58.015Z,13.60
2019-02-17T16:31:26.668Z,13.33
2019-02-17T16:33:55.970Z,13.29
2019-02-17T16:36:24.793Z,13.31
2019-02-17T16:38:53.513Z,13.21
2019-02-17T16:41:22.254Z,13.22
2019-02-17T16:43:51.038Z,13.18
2019-02-17T16:46:19.743Z,12.98
2019-02-17T16:48:48.496Z,12.96
2019-02-17T16:51:17.254Z,12.60
2019-02-17T16:53:46.096Z,12.38
2019-02-17T16:56:14.810Z,12.12
2019-02-17T16:58:43.446Z,11.92
2019-02-17T17:01:12.257Z,11.43
2019-02-17T17:03:41.284Z,11.08
2019-02-17T17:06:10.122Z,10.83
2019-02-17T17:08:39.115Z,10.56
2019-02-17T17:11:07.881Z,10.60
2019-02-17T17:13:36.638Z,10.50
2019-02-17T17:16:05.321Z,10.43
2019-02-17T17:18:34.016Z,10.31
2019-02-17T17:21:03.544Z,10.21
2019-02-17T17:23:32.307Z,10.18
2019-02-17T17:26:01.045Z,10.10
2019-02-17T17:28:29.750Z,10.03
2019-02-17T17:30:58.655Z,9.96
2019-02-17T17:33:27.260Z,10.00
2019-02-17T17:35:55.971Z,9.99
2019-02-17T17:38:24.725Z,9.79
2019-02-17T17:40:53.414Z,9.69
2019-02-17T17:43:22.176Z,9.56
2019-02-17T17:45:50.919Z,9.54
2019-02-17T17:48:19.849Z,9.51
2019-02-17T17:50:48.571Z,9.52
2019-02-17T17:53:17.320Z,9.58
2019-02-17T17:55:46.076Z,9.55
2019-02-17T17:58:14.893Z,9.49
2019-02-17T18:00:43.761Z,9.36
2019-02-17T18:03:12.493Z,9.28
2019-02-17T18:05:41.280Z,9.16
2019-02-17T18:08:10.037Z,9.08
2019-02-17T18:10:43.282Z,9.07
2019-02-17T18:13:12.014Z,9.04
2019-02-17T18:15:41.527Z,9.05
2019-02-17T18:18:10.415Z,8.92
2019-02-17T18:20:39.226Z,8.82
2019-02-17T18:23:11.412Z,8.78
2019-02-17T18:25:40.510Z,8.70
2019-02-17T18:28:09.284Z,8.62
2019-02-17T18:30:38.040Z,8.53
2019-02-17T18:33:06.799Z,8.32
2019-02-17T18:35:35.425Z,8.09
2019-02-17T18:38:06.313Z,7.94
2019-02-17T18:40:44.659Z,7.79
2019-02-17T18:43:07.961Z,7.67
2019-02-17T18:45:37.074Z,7.54
2019-02-17T18:48:05.765Z,7.43
2019-02-17T18:50:35.540Z,7.32
2019-02-17T18:53:06.207Z,7.12
2019-02-17T18:55:35.154Z,6.98
2019-02-17T18:58:03.966Z,6.81
2019-02-17T19:00:33.063Z,6.72
2019-02-17T19:03:01.762Z,6.58
2019-02-17T19:05:32.299Z,6.48
2019-02-17T19:08:00.859Z,6.34
2019-02-17T19:10:29.692Z,6.40
2019-02-17T19:12:58.412Z,6.44
2019-02-17T19:15:27.120Z,6.44
2019-02-17T19:17:55.882Z,6.44
2019-02-17T19:20:36.337Z,6.43
2019-02-17T19:23:05.309Z,6.44
2019-02-17T19:25:34.012Z,5.54
2019-02-17T19:28:03.732Z,6.13
2019-02-17T19:30:32.894Z,5.97
2019-02-17T19:33:01.635Z,5.97
2019-02-17T19:35:30.848Z,5.87
2019-02-17T19:37:59.684Z,5.73
2019-02-17T19:40:28.430Z,5.63
2019-02-17T19:42:57.623Z,5.55
2019-02-17T19:45:26.604Z,5.59
2019-02-17T19:47:55.396Z,5.57
2019-02-17T19:50:24.285Z,5.52
2019-02-17T19:52:53.125Z,5.52
2019-02-17T19:55:21.914Z,5.40
2019-02-17T19:57:50.777Z,5.38
2019-02-17T20:00:22.115Z,5.43
2019-02-17T20:03:07.681Z,5.60
2019-02-17T20:05:38.001Z,5.60
2019-02-17T20:08:06.852Z,5.60
2019-02-17T20:10:35.441Z,5.58
2019-02-17T20:13:05.247Z,5.47
2019-02-17T20:15:35.196Z,5.21
2019-02-17T20:18:03.877Z,4.84
2019-02-17T20:20:32.568Z,4.70
2019-02-17T20:23:01.295Z,4.76
2019-02-17T20:25:29.999Z,4.81
2019-02-17T20:27:58.719Z,4.81
2019-02-17T20:30:27.365Z,4.82
2019-02-17T20:32:56.094Z,4.79
2019-02-17T20:35:24.887Z,4.78
2019-02-17T20:37:53.501Z,4.96
2019-02-17T20:40:22.244Z,4.84
2019-02-17T20:42:50.956Z,4.93
2019-02-17T20:45:19.725Z,4.92
2019-02-17T20:47:48.418Z,4.70
2019-02-17T20:50:19.247Z,4.63
2019-02-17T20:52:47.978Z,4.48
2019-02-17T20:55:16.689Z,4.59
2019-02-17T20:57:45.392Z,4.47
2019-02-17T21:00:22.565Z,4.36
2019-02-17T21:03:06.327Z,4.21
2019-02-17T21:05:36.704Z,4.20
2019-02-17T21:08:21.023Z,4.20
2019-02-17T21:10:52.205Z,4.08
2019-02-17T21:13:24.928Z,4.16
2019-02-17T21:15:53.773Z,4.13
2019-02-17T21:18:28.934Z,4.27
2019-02-17T21:21:12.434Z,4.20
2019-02-17T21:23:45.230Z,4.14
2019-02-17T21:26:14.248Z,4.15
2019-02-17T21:28:46.175Z,4.24
2019-02-17T21:31:17.503Z,4.23
2019-02-17T21:33:55.652Z,4.22
2019-02-17T21:36:25.060Z,4.30
2019-02-17T21:38:56.012Z,4.44
2019-02-17T21:41:28.300Z,4.76
2019-02-17T21:43:58.896Z,5.01
2019-02-17T21:46:27.701Z,5.00
2019-02-17T21:48:56.601Z,5.03
2019-02-17T21:51:26.787Z,5.09
2019-02-17T21:53:55.535Z,5.20
2019-02-17T21:56:24.299Z,5.18
2019-02-17T21:58:52.951Z,5.39
2019-02-17T22:01:21.770Z,5.51
2019-02-17T22:03:50.478Z,5.64
2019-02-17T22:06:19.134Z,5.78
2019-02-17T22:08:47.925Z,6.15
2019-02-17T22:11:17.549Z,6.18
2019-02-17T22:13:46.355Z,6.15
2019-02-17T22:16:15.085Z,6.13
2019-02-17T22:18:43.881Z,6.09
2019-02-17T22:21:12.701Z,6.31
2019-02-17T22:23:41.425Z,6.23
2019-02-17T22:26:10.295Z,6.27
2019-02-17T22:28:39.080Z,6.41
2019-02-17T22:31:07.830Z,6.43
2019-02-17T22:33:36.493Z,6.46
2019-02-17T22:36:05.266Z,6.62
2019-02-17T22:38:34.011Z,6.66
2019-02-17T22:41:03.120Z,6.79
2019-02-17T22:43:33.234Z,6.88
2019-02-17T22:46:02.459Z,6.87
2019-02-17T22:48:31.217Z,6.98
2019-02-17T22:50:59.921Z,6.77
2019-02-17T22:53:28.647Z,6.65
2019-02-17T22:55:57.331Z,6.56
2019-02-17T22:58:25.968Z,6.59
2019-02-17T23:00:59.246Z,6.59
2019-02-17T23:03:30.940Z,6.67
2019-02-17T23:05:59.934Z,6.68
2019-02-17T23:08:28.636Z,6.61
2019-02-17T23:10:57.415Z,6.64
2019-02-17T23:13:26.545Z,6.93
2019-02-17T23:15:55.164Z,7.20
2019-02-17T23:18:23.890Z,7.14
2019-02-17T23:20:52.617Z,7.35
2019-02-17T23:23:21.323Z,7.34
2019-02-17T23:25:49.996Z,7.23
2019-02-17T23:28:18.624Z,7.29
2019-02-17T23:30:47.331Z,7.31
2019-02-17T23:33:16.070Z,7.28
2019-02-17T23:35:44.848Z,7.37
2019-02-17T23:38:13.478Z,7.47
2019-02-17T23:40:42.106Z,7.50
2019-02-17T23:43:10.767Z,7.59
2019-02-17T23:45:39.670Z,7.65
2019-02-17T23:48:08.421Z,7.65
2019-02-17T23:50:37.066Z,7.59
2019-02-17T23:53:05.778Z,7.48
2019-02-17T23:55:34.390Z,7.50
2019-02-17T23:58:03.087Z,7.36
